createdAt,value
2019-01-10T00:00:49.347Z,9.47
2019-01-10T00:03:18.966Z,10.10
2019-01-10T00:05:48.390Z,19.27
2019-01-10T00:08:17.713Z,13.13
2019-01-10T00:10:47.086Z,14.03
2019-01-10T00:13:16.661Z,10.70
2019-01-10T00:15:46.114Z,8.13
2019-01-10T00:18:15.489Z,4.80
2019-01-10T00:20:45.166Z,14.33
2019-01-10T00:23:14.748Z,11.23
2019-01-10T00:25:44.293Z,14.10
2019-01-10T00:28:13.841Z,16.03
2019-01-10T00:30:43.258Z,3.97
2019-01-10T00:33:12.718Z,8.77
2019-01-10T00:35:42.415Z,8.80
2019-01-10T00:38:11.985Z,9.33
2019-01-10T00:40:41.396Z,10.93
2019-01-10T00:43:10.913Z,10.20
2019-01-10T00:45:40.288Z,5.97
2019-01-10T00:48:09.653Z,8.77
2019-01-10T00:50:39.078Z,12.90
2019-01-10T00:53:08.381Z,10.87
2019-01-10T00:55:37.897Z,6.30
2019-01-10T00:58:07.317Z,17.43
2019-01-10T01:00:36.773Z,12.50
2019-01-10T01:03:06.199Z,15.30
2019-01-10T01:05:35.514Z,5.87
2019-01-10T01:08:04.925Z,6.40
2019-01-10T01:10:34.395Z,16.47
2019-01-10T01:13:03.747Z,10.27
2019-01-10T01:15:33.045Z,6.77
2019-01-10T01:18:02.606Z,13.43
2019-01-10T01:20:32.190Z,12.73
2019-01-10T01:23:01.731Z,8.37
2019-01-10T01:25:31.198Z,14.63
2019-01-10T01:28:00.657Z,13.03
2019-01-10T01:30:30.365Z,17.73
2019-01-10T01:32:59.809Z,6.90
2019-01-10T01:35:29.350Z,11.67
2019-01-10T01:37:58.952Z,17.50
2019-01-10T01:40:28.355Z,15.03
2019-01-10T01:42:57.697Z,17.50
2019-01-10T01:45:27.001Z,21.13
2019-01-10T01:47:56.330Z,11.00
2019-01-10T01:50:26.077Z,15.67
2019-01-10T01:52:55.422Z,12.33
2019-01-10T01:55:24.817Z,14.43
2019-01-10T01:57:54.257Z,21.43
2019-01-10T02:00:24.893Z,17.43
2019-01-10T02:02:54.314Z,18.33
2019-01-10T02:05:23.653Z,19.30
2019-01-10T02:07:53.306Z,16.50
2019-01-10T02:10:25.065Z,30.87
2019-01-10T02:12:54.429Z,11.20
2019-01-10T02:15:23.791Z,22.97
2019-01-10T02:17:53.122Z,23.20
2019-01-10T02:20:22.496Z,16.33
2019-01-10T02:22:51.831Z,12.97
2019-01-10T02:25:21.091Z,16.20
2019-01-10T02:27:50.587Z,12.60
2019-01-10T02:30:25.269Z,12.93
2019-01-10T02:32:54.659Z,11.20
2019-01-10T02:35:24.154Z,30.60
2019-01-10T02:37:53.463Z,13.30
2019-01-10T02:40:22.892Z,20.50
2019-01-10T02:42:52.220Z,12.77
2019-01-10T02:45:21.504Z,18.57
2019-01-10T02:47:50.873Z,17.87
2019-01-10T02:50:22.406Z,8.70
2019-01-10T02:52:51.827Z,25.13
2019-01-10T02:55:21.264Z,16.90
2019-01-10T02:57:50.609Z,18.97
2019-01-10T03:00:22.146Z,19.63
2019-01-10T03:02:51.459Z,11.90
2019-01-10T03:05:21.666Z,12.53
2019-01-10T03:07:51.570Z,14.30
2019-01-10T03:10:25.336Z,12.47
2019-01-10T03:12:55.297Z,13.73
2019-01-10T03:15:24.777Z,9.80
2019-01-10T03:17:54.290Z,26.20
2019-01-10T03:20:24.371Z,13.73
2019-01-10T03:22:53.640Z,18.33
2019-01-10T03:25:22.976Z,29.10
2019-01-10T03:27:52.497Z,25.60
2019-01-10T03:30:21.950Z,28.47
2019-01-10T03:32:51.704Z,11.33
2019-01-10T03:35:21.045Z,33.37
2019-01-10T03:37:50.727Z,20.70
2019-01-10T03:40:21.851Z,16.70
2019-01-10T03:42:51.102Z,7.27
2019-01-10T03:45:22.446Z,10.20
2019-01-10T03:47:51.698Z,18.10
2019-01-10T03:50:21.243Z,19.80
2019-01-10T03:52:50.767Z,8.60
2019-01-10T03:55:20.253Z,12.60
2019-01-10T03:57:49.518Z,16.30
2019-01-10T04:00:23.976Z,12.80
2019-01-10T04:02:53.343Z,19.00
2019-01-10T04:05:22.590Z,26.40
2019-01-10T04:07:51.981Z,13.50
2019-01-10T04:10:21.604Z,11.73
2019-01-10T04:12:50.883Z,20.23
2019-01-10T04:15:20.263Z,7.50
2019-01-10T04:17:49.608Z,20.27
2019-01-10T04:20:19.462Z,10.90
2019-01-10T04:22:48.965Z,18.20
2019-01-10T04:25:18.325Z,19.73
2019-01-10T04:27:47.716Z,17.17
2019-01-10T04:30:19.303Z,15.50
2019-01-10T04:32:48.563Z,13.63
2019-01-10T04:35:17.952Z,26.27
2019-01-10T04:37:47.551Z,11.90
2019-01-10T04:40:19.159Z,14.20
2019-01-10T04:42:48.555Z,44.23
2019-01-10T04:45:18.097Z,15.93
2019-01-10T04:47:47.494Z,18.93
2019-01-10T04:50:19.229Z,22.97
2019-01-10T04:52:48.709Z,13.57
2019-01-10T04:55:18.244Z,14.93
2019-01-10T04:57:47.595Z,20.73
2019-01-10T05:00:22.797Z,12.67
2019-01-10T05:02:52.325Z,24.20
2019-01-10T05:05:21.727Z,18.80
2019-01-10T05:07:51.091Z,17.33
2019-01-10T05:10:20.469Z,28.57
2019-01-10T05:12:49.975Z,21.90
2019-01-10T05:15:19.518Z,15.60
2019-01-10T05:17:49.055Z,28.70
2019-01-10T05:20:19.889Z,24.33
2019-01-10T05:22:49.235Z,18.60
2019-01-10T05:25:18.706Z,19.77
2019-01-10T05:27:48.315Z,11.83
2019-01-10T05:30:20.365Z,10.90
2019-01-10T05:32:49.714Z,11.67
2019-01-10T05:35:19.014Z,20.07
2019-01-10T05:37:50.251Z,15.90
2019-01-10T05:40:19.683Z,13.63
2019-01-10T05:42:49.134Z,19.07
2019-01-10T05:45:18.851Z,14.87
2019-01-10T05:47:48.316Z,9.77
2019-01-10T05:50:18.375Z,12.80
2019-01-10T05:52:47.832Z,31.40
2019-01-10T05:55:22.157Z,13.60
2019-01-10T05:57:51.678Z,16.67
2019-01-10T06:00:23.922Z,10.97
2019-01-10T06:02:53.365Z,13.83
2019-01-10T06:05:22.942Z,11.17
2019-01-10T06:07:52.402Z,29.93
2019-01-10T06:10:23.909Z,21.30
2019-01-10T06:12:53.539Z,21.60
2019-01-10T06:15:23.127Z,22.33
2019-01-10T06:17:52.540Z,21.33
2019-01-10T06:20:22.791Z,17.43
2019-01-10T06:22:52.260Z,16.73
2019-01-10T06:25:21.657Z,19.87
2019-01-10T06:27:51.046Z,15.93
2019-01-10T06:30:22.412Z,12.80
2019-01-10T06:32:51.873Z,23.47
2019-01-10T06:35:21.305Z,23.47
2019-01-10T06:37:50.651Z,24.90
2019-01-10T06:40:21.605Z,19.70
2019-01-10T06:42:50.973Z,35.17
2019-01-10T06:45:20.478Z,22.70
2019-01-10T06:47:49.774Z,16.53
2019-01-10T06:50:19.280Z,11.97
2019-01-10T06:52:48.684Z,18.03
2019-01-10T06:55:18.022Z,18.23
2019-01-10T06:57:47.470Z,22.70
2019-01-10T07:00:22.131Z,12.93
2019-01-10T07:02:51.633Z,12.10
2019-01-10T07:05:21.067Z,29.57
2019-01-10T07:07:56.373Z,14.47
2019-01-10T07:10:28.999Z,9.87
2019-01-10T07:12:58.506Z,13.70
2019-01-10T07:15:27.937Z,16.73
2019-01-10T07:17:57.316Z,17.60
2019-01-10T07:20:26.923Z,11.17
2019-01-10T07:22:56.470Z,28.57
2019-01-10T07:25:25.909Z,21.47
2019-01-10T07:27:56.705Z,16.50
2019-01-10T07:30:35.779Z,24.03
2019-01-10T07:33:00.494Z,24.80
2019-01-10T07:35:30.127Z,27.60
2019-01-10T07:37:59.567Z,20.30
2019-01-10T07:40:29.007Z,27.53
2019-01-10T07:42:59.176Z,30.83
2019-01-10T07:45:29.456Z,23.57
2019-01-10T07:47:58.888Z,36.37
2019-01-10T07:50:31.431Z,19.60
2019-01-10T07:53:00.787Z,19.20
2019-01-10T07:55:30.313Z,20.20
2019-01-10T07:57:59.594Z,20.90
2019-01-10T08:00:28.986Z,17.27
2019-01-10T08:02:58.319Z,19.00
2019-01-10T08:05:27.771Z,24.23
2019-01-10T08:07:57.178Z,26.10
2019-01-10T08:10:26.649Z,33.13
2019-01-10T08:12:56.178Z,28.10
2019-01-10T08:15:25.601Z,30.73
2019-01-10T08:17:55.065Z,27.93
2019-01-10T08:20:24.518Z,21.30
2019-01-10T08:22:53.892Z,28.00
2019-01-10T08:25:23.358Z,34.27
2019-01-10T08:27:52.732Z,26.50
2019-01-10T08:30:25.951Z,16.47
2019-01-10T08:32:55.425Z,29.70
2019-01-10T08:35:26.598Z,24.10
2019-01-10T08:37:56.055Z,31.63
2019-01-10T08:40:25.498Z,42.67
2019-01-10T08:42:54.914Z,18.17
2019-01-10T08:45:24.315Z,28.10
2019-01-10T08:47:53.652Z,19.87
2019-01-10T08:50:25.201Z,23.23
2019-01-10T08:52:54.542Z,27.50
2019-01-10T08:55:24.224Z,26.53
2019-01-10T08:57:53.681Z,29.13
2019-01-10T09:00:24.355Z,24.30
2019-01-10T09:02:54.338Z,23.07
2019-01-10T09:05:23.626Z,51.37
2019-01-10T09:07:53.136Z,16.00
2019-01-10T09:10:28.155Z,24.20
2019-01-10T09:12:57.752Z,32.80
2019-01-10T09:15:34.340Z,24.83
2019-01-10T09:17:58.203Z,27.27
2019-01-10T09:20:27.675Z,23.73
2019-01-10T09:23:00.967Z,47.43
2019-01-10T09:25:30.327Z,26.60
2019-01-10T09:27:59.833Z,25.23
2019-01-10T09:30:29.325Z,20.03
2019-01-10T09:32:58.673Z,32.57
2019-01-10T09:35:28.041Z,29.50
2019-01-10T09:37:57.399Z,31.63
2019-01-10T09:40:26.773Z,47.13
2019-01-10T09:42:56.125Z,25.43
2019-01-10T09:45:26.265Z,39.60
2019-01-10T09:47:55.621Z,24.97
2019-01-10T09:50:24.973Z,23.10
2019-01-10T09:52:55.137Z,37.33
2019-01-10T09:55:24.925Z,25.33
2019-01-10T09:57:54.468Z,24.40
2019-01-10T10:00:31.179Z,35.17
2019-01-10T10:03:00.601Z,29.70
2019-01-10T10:05:29.933Z,27.53
2019-01-10T10:07:59.453Z,22.50
2019-01-10T10:10:28.873Z,25.30
2019-01-10T10:12:58.360Z,28.13
2019-01-10T10:15:27.870Z,20.33
2019-01-10T10:17:57.483Z,28.27
2019-01-10T10:20:27.094Z,25.27
2019-01-10T10:22:56.511Z,34.73
2019-01-10T10:25:26.317Z,29.40
2019-01-10T10:27:55.738Z,40.43
2019-01-10T10:30:25.355Z,31.30
2019-01-10T10:32:54.817Z,32.97
2019-01-10T10:35:24.789Z,29.63
2019-01-10T10:37:55.586Z,85.70
2019-01-10T10:40:25.017Z,44.53
2019-01-10T10:42:54.301Z,20.43
2019-01-10T10:45:24.446Z,28.93
2019-01-10T10:47:53.860Z,27.97
2019-01-10T10:50:25.830Z,25.43
2019-01-10T10:52:55.157Z,24.83
2019-01-10T10:55:24.590Z,37.90
2019-01-10T10:57:54.354Z,32.27
2019-01-10T11:00:25.857Z,24.30
2019-01-10T11:02:55.626Z,30.63
2019-01-10T11:05:25.200Z,24.20
2019-01-10T11:07:54.611Z,36.20
2019-01-10T11:10:24.534Z,26.50
2019-01-10T11:12:54.063Z,22.40
2019-01-10T11:15:23.728Z,30.00
2019-01-10T11:17:53.177Z,24.37
2019-01-10T11:20:24.528Z,26.80
2019-01-10T11:22:54.390Z,32.03
2019-01-10T11:25:26.359Z,22.90
2019-01-10T11:27:56.234Z,23.93
2019-01-10T11:30:25.845Z,15.27
2019-01-10T11:32:55.250Z,28.33
2019-01-10T11:35:24.768Z,22.17
2019-01-10T11:37:54.360Z,10.80
2019-01-10T11:40:24.189Z,14.30
2019-01-10T11:42:53.511Z,19.73
2019-01-10T11:45:24.756Z,12.40
2019-01-10T11:47:54.160Z,22.03
2019-01-10T11:50:23.594Z,17.60
2019-01-10T11:52:52.896Z,25.53
2019-01-10T11:55:22.332Z,16.63
2019-01-10T11:57:51.666Z,17.37
2019-01-10T12:00:30.035Z,48.37
2019-01-10T12:03:00.664Z,17.13
2019-01-10T12:05:30.079Z,24.73
2019-01-10T12:07:59.490Z,11.30
2019-01-10T12:10:28.828Z,26.17
2019-01-10T12:12:58.181Z,24.37
2019-01-10T12:15:27.581Z,18.97
2019-01-10T12:17:57.080Z,33.70
2019-01-10T12:20:26.471Z,13.60
2019-01-10T12:22:55.890Z,21.33
2019-01-10T12:25:25.473Z,35.63
2019-01-10T12:27:54.973Z,17.47
2019-01-10T12:30:25.813Z,15.40
2019-01-10T12:32:55.235Z,22.30
2019-01-10T12:35:26.199Z,16.40
2019-01-10T12:37:55.808Z,22.23
2019-01-10T12:40:25.241Z,25.03
2019-01-10T12:42:54.651Z,26.07
2019-01-10T12:45:24.209Z,31.03
2019-01-10T12:47:54.807Z,15.93
2019-01-10T12:50:29.910Z,28.33
2019-01-10T12:52:59.821Z,21.73
2019-01-10T12:55:29.121Z,18.47
2019-01-10T12:57:58.579Z,15.63
2019-01-10T13:00:28.050Z,13.03
2019-01-10T13:02:57.690Z,15.73
2019-01-10T13:05:27.256Z,8.80
2019-01-10T13:08:03.393Z,20.87
2019-01-10T13:10:27.821Z,11.73
2019-01-10T13:12:57.287Z,15.00
2019-01-10T13:15:28.254Z,27.23
2019-01-10T13:17:57.671Z,14.63
2019-01-10T13:20:27.203Z,16.73
2019-01-10T13:22:57.897Z,16.83
2019-01-10T13:25:28.657Z,15.33
2019-01-10T13:27:58.059Z,13.60
2019-01-10T13:30:28.092Z,12.33
2019-01-10T13:32:58.457Z,19.53
2019-01-10T13:35:28.400Z,27.90
2019-01-10T13:37:58.014Z,17.20
2019-01-10T13:40:27.728Z,15.50
2019-01-10T13:42:57.204Z,13.33
2019-01-10T13:45:26.898Z,16.00
2019-01-10T13:47:56.353Z,13.30
2019-01-10T13:50:30.521Z,14.50
2019-01-10T13:53:00.048Z,23.50
2019-01-10T13:55:29.882Z,18.60
2019-01-10T13:57:59.881Z,24.57
2019-01-10T14:00:35.450Z,20.90
2019-01-10T14:03:02.231Z,22.97
2019-01-10T14:05:31.819Z,21.00
2019-01-10T14:08:01.403Z,23.33
2019-01-10T14:10:30.795Z,20.23
2019-01-10T14:13:00.198Z,19.90
2019-01-10T14:15:34.430Z,32.60
2019-01-10T14:18:04.376Z,17.80
2019-01-10T14:20:34.344Z,28.83
2019-01-10T14:23:04.697Z,17.47
2019-01-10T14:25:34.239Z,20.13
2019-01-10T14:28:04.526Z,21.67
2019-01-10T14:30:39.941Z,25.97
2019-01-10T14:33:12.235Z,30.00
2019-01-10T14:35:41.935Z,33.90
2019-01-10T14:38:12.968Z,17.70
2019-01-10T14:40:42.687Z,25.07
2019-01-10T14:43:12.184Z,23.57
2019-01-10T14:45:42.675Z,18.23
2019-01-10T14:48:12.130Z,18.27
2019-01-10T14:50:41.795Z,29.90
2019-01-10T14:53:11.250Z,15.07
2019-01-10T14:55:41.056Z,22.17
2019-01-10T14:58:10.523Z,32.43
2019-01-10T15:00:39.975Z,22.53
2019-01-10T15:03:09.691Z,19.60
2019-01-10T15:05:39.275Z,14.27
2019-01-10T15:08:08.917Z,22.53
2019-01-10T15:10:38.424Z,20.33
2019-01-10T15:13:08.000Z,27.27
2019-01-10T15:15:37.488Z,18.13
2019-01-10T15:18:06.928Z,25.33
2019-01-10T15:20:36.680Z,18.63
2019-01-10T15:23:06.304Z,18.90
2019-01-10T15:25:35.926Z,17.43
2019-01-10T15:28:05.410Z,29.87
2019-01-10T15:30:35.125Z,18.90
2019-01-10T15:33:04.556Z,17.27
2019-01-10T15:35:34.426Z,19.57
2019-01-10T15:38:03.872Z,28.13
2019-01-10T15:40:34.832Z,38.63
2019-01-10T15:43:07.678Z,23.90
2019-01-10T15:45:37.517Z,48.10
2019-01-10T15:48:07.360Z,27.40
2019-01-10T15:50:36.939Z,27.80
2019-01-10T15:53:06.612Z,30.90
2019-01-10T15:55:37.511Z,33.73
2019-01-10T15:58:07.071Z,30.57
2019-01-10T16:00:36.749Z,25.73
2019-01-10T16:03:06.410Z,25.30
2019-01-10T16:05:36.023Z,19.50
2019-01-10T16:08:05.998Z,21.40
2019-01-10T16:10:35.587Z,23.53
2019-01-10T16:13:06.008Z,30.03
2019-01-10T16:15:36.718Z,25.60
2019-01-10T16:18:06.442Z,35.73
2019-01-10T16:20:36.241Z,28.03
2019-01-10T16:23:06.510Z,24.47
2019-01-10T16:25:36.420Z,26.47
2019-01-10T16:28:06.132Z,23.87
2019-01-10T16:30:36.325Z,36.90
2019-01-10T16:33:05.999Z,35.00
2019-01-10T16:35:35.681Z,37.73
2019-01-10T16:38:05.308Z,23.50
2019-01-10T16:40:34.765Z,22.33
2019-01-10T16:43:04.496Z,30.90
2019-01-10T16:45:34.509Z,18.80
2019-01-10T16:48:04.421Z,21.53
2019-01-10T16:50:34.042Z,22.60
2019-01-10T16:53:24.051Z,20.43
2019-01-10T16:55:53.662Z,33.57
2019-01-10T16:58:23.497Z,15.30
2019-01-10T17:00:53.483Z,18.27
2019-01-10T17:03:23.264Z,37.83
2019-01-10T17:05:53.191Z,21.67
2019-01-10T17:08:23.058Z,25.77
2019-01-10T17:10:52.665Z,24.37
2019-01-10T17:13:22.461Z,27.37
2019-01-10T17:15:51.975Z,18.03
2019-01-10T17:18:21.596Z,21.80
2019-01-10T17:20:51.438Z,26.20
2019-01-10T17:23:21.241Z,28.40
2019-01-10T17:25:51.081Z,16.67
2019-01-10T17:28:20.748Z,28.83
2019-01-10T17:30:50.530Z,26.47
2019-01-10T17:33:20.326Z,22.63
2019-01-10T17:35:50.003Z,39.80
2019-01-10T17:38:19.769Z,28.23
2019-01-10T17:40:49.617Z,19.30
2019-01-10T17:43:19.403Z,28.70
2019-01-10T17:45:49.355Z,24.10
2019-01-10T17:48:19.013Z,26.60
2019-01-10T17:50:48.858Z,24.37
2019-01-10T17:53:19.245Z,25.57
2019-01-10T17:55:48.996Z,30.63
2019-01-10T17:58:18.869Z,32.30
2019-01-10T18:00:49.264Z,27.50
2019-01-10T18:03:18.992Z,28.47
2019-01-10T18:05:48.542Z,31.40
2019-01-10T18:08:18.631Z,36.17
2019-01-10T18:10:48.413Z,25.83
2019-01-10T18:13:17.981Z,34.27
2019-01-10T18:15:48.167Z,25.97
2019-01-10T18:18:17.992Z,26.03
2019-01-10T18:20:47.921Z,30.37
2019-01-10T18:23:17.615Z,54.73
2019-01-10T18:25:47.213Z,29.63
2019-01-10T18:28:19.032Z,23.27
2019-01-10T18:30:48.740Z,25.63
2019-01-10T18:33:18.308Z,32.57
2019-01-10T18:35:48.019Z,34.60
2019-01-10T18:38:17.669Z,27.60
2019-01-10T18:40:47.517Z,40.83
2019-01-10T18:43:17.207Z,28.57
2019-01-10T18:45:47.116Z,34.27
2019-01-10T18:48:16.985Z,24.33
2019-01-10T18:50:46.470Z,27.43
2019-01-10T18:53:16.336Z,42.63
2019-01-10T18:55:46.189Z,40.33
2019-01-10T18:58:15.908Z,36.53
2019-01-10T19:00:45.614Z,27.73
2019-01-10T19:03:15.642Z,24.23
2019-01-10T19:05:45.618Z,44.07
2019-01-10T19:08:15.431Z,46.13
2019-01-10T19:10:45.177Z,28.70
2019-01-10T19:13:14.896Z,25.00
2019-01-10T19:15:45.075Z,33.50
2019-01-10T19:18:14.963Z,31.23
2019-01-10T19:20:44.664Z,35.80
2019-01-10T19:23:14.392Z,33.13
2019-01-10T19:25:44.266Z,34.97
2019-01-10T19:28:14.109Z,26.97
2019-01-10T19:30:43.912Z,41.13
2019-01-10T19:33:13.817Z,33.80
2019-01-10T19:35:43.611Z,27.77
2019-01-10T19:38:13.564Z,34.13
2019-01-10T19:40:43.578Z,33.00
2019-01-10T19:43:13.322Z,28.80
2019-01-10T19:45:43.579Z,41.37
2019-01-10T19:48:13.840Z,33.50
2019-01-10T19:50:43.647Z,33.80
2019-01-10T19:53:13.529Z,41.60
2019-01-10T19:55:43.541Z,39.27
2019-01-10T19:58:13.047Z,38.83
2019-01-10T20:00:45.288Z,38.10
2019-01-10T20:03:15.468Z,41.47
2019-01-10T20:05:46.394Z,34.13
2019-01-10T20:08:17.471Z,30.33
2019-01-10T20:10:47.339Z,33.90
2019-01-10T20:13:17.735Z,40.57
2019-01-10T20:15:47.534Z,30.90
2019-01-10T20:18:19.109Z,48.00
2019-01-10T20:20:49.728Z,32.17
2019-01-10T20:23:26.954Z,39.80
2019-01-10T20:25:57.164Z,39.93
2019-01-10T20:28:27.266Z,26.20
2019-01-10T20:30:57.946Z,27.30
2019-01-10T20:33:27.521Z,44.60
2019-01-10T20:35:58.725Z,39.00
2019-01-10T20:38:28.717Z,35.53
2019-01-10T20:40:58.498Z,34.57
2019-01-10T20:43:29.779Z,31.13
2019-01-10T20:46:00.195Z,34.47
2019-01-10T20:48:30.044Z,52.27
2019-01-10T20:51:00.733Z,36.30
2019-01-10T20:53:30.772Z,35.80
2019-01-10T20:56:00.904Z,42.53
2019-01-10T20:58:30.767Z,34.50
2019-01-10T21:01:02.263Z,36.30
2019-01-10T21:03:32.879Z,44.50
2019-01-10T21:06:04.462Z,42.73
2019-01-10T21:08:35.275Z,43.57
2019-01-10T21:11:05.056Z,37.07
2019-01-10T21:13:35.102Z,43.50
2019-01-10T21:16:05.240Z,39.03
2019-01-10T21:18:34.926Z,40.93
2019-01-10T21:21:05.064Z,48.77
2019-01-10T21:23:35.154Z,47.43
2019-01-10T21:26:06.272Z,42.07
2019-01-10T21:28:39.070Z,41.57
2019-01-10T21:31:08.621Z,44.70
2019-01-10T21:33:38.290Z,63.43
2019-01-10T21:36:07.883Z,48.53
2019-01-10T21:38:37.568Z,51.80
2019-01-10T21:41:07.476Z,51.83
2019-01-10T21:43:37.276Z,46.27
2019-01-10T21:46:07.137Z,46.43
2019-01-10T21:48:36.751Z,45.07
2019-01-10T21:51:06.501Z,43.07
2019-01-10T21:53:36.304Z,58.40
2019-01-10T21:56:08.686Z,46.60
2019-01-10T21:58:38.324Z,59.07
2019-01-10T22:01:07.931Z,65.27
2019-01-10T22:03:37.378Z,59.80
2019-01-10T22:06:07.071Z,50.73
2019-01-10T22:08:36.526Z,52.00
2019-01-10T22:11:06.180Z,53.10
2019-01-10T22:13:36.011Z,52.10
2019-01-10T22:16:05.791Z,71.87
2019-01-10T22:18:41.333Z,69.00
2019-01-10T22:21:06.700Z,60.37
2019-01-10T22:23:36.217Z,48.00
2019-01-10T22:26:05.961Z,43.40
2019-01-10T22:28:35.640Z,51.40
2019-01-10T22:31:05.207Z,51.13
2019-01-10T22:33:34.642Z,73.53
2019-01-10T22:36:04.212Z,65.33
2019-01-10T22:38:33.775Z,56.27
2019-01-10T22:41:03.275Z,59.43
2019-01-10T22:43:32.706Z,64.57
2019-01-10T22:46:02.192Z,58.13
2019-01-10T22:48:31.587Z,57.37
2019-01-10T22:51:01.117Z,58.07
2019-01-10T22:53:30.556Z,42.63
2019-01-10T22:56:00.120Z,53.80
2019-01-10T22:58:29.737Z,61.30
2019-01-10T23:01:26.946Z,58.43
2019-01-10T23:03:56.646Z,60.80
2019-01-10T23:06:26.156Z,48.00
2019-01-10T23:08:55.810Z,58.30
2019-01-10T23:11:26.159Z,56.30
2019-01-10T23:14:02.523Z,66.77
2019-01-10T23:16:33.423Z,73.30
2019-01-10T23:19:03.007Z,56.83
2019-01-10T23:21:34.575Z,64.37
2019-01-10T23:24:14.777Z,58.70
2019-01-10T23:26:52.589Z,62.83
2019-01-10T23:29:22.789Z,62.37
2019-01-10T23:31:53.617Z,55.93
2019-01-10T23:34:23.134Z,68.40
2019-01-10T23:36:53.467Z,63.93
2019-01-10T23:39:24.182Z,65.10
2019-01-10T23:41:55.303Z,51.63
2019-01-10T23:44:24.892Z,62.30
2019-01-10T23:46:55.361Z,64.13
2019-01-10T23:49:25.003Z,55.50
2019-01-10T23:51:54.494Z,60.93
2019-01-10T23:54:24.099Z,63.73
2019-01-10T23:56:53.546Z,62.80
2019-01-10T23:59:23.256Z,68.27
